Time;durP1;ratioP1;P1;durP2;ratioP2;P2;SDS_P1;SDS_P2;PMS_P1;PMS_P2;Temp;Humidity;BMP_temperature;BMP_pressure;BME280_temperature;BME280_humidity;BME280_pressure;Samples;Min_cycle;Max_cycle;Signal;HPM_P1;HPM_P2
2022/05/06 00:01:38;;;;;;;13.73;6.40;;;13.10;70.80;;;;;;5023960;28;20083;-83
2022/05/06 00:04:06;;;;;;;11.48;5.78;;;13.00;70.90;;;;;;4987489;28;20038;-83
2022/05/06 00:06:33;;;;;;;9.85;5.28;;;13.10;71.10;;;;;;4991462;28;20133;-83
2022/05/06 00:09:01;;;;;;;10.55;5.75;;;13.00;71.30;;;;;;5008025;28;20046;-83
2022/05/06 00:11:31;;;;;;;13.45;6.00;;;13.00;71.40;;;;;;4979195;28;20418;-82
2022/05/06 00:13:58;;;;;;;12.27;6.45;;;13.00;72.10;;;;;;5011947;28;20514;-84
2022/05/06 00:16:26;;;;;;;14.85;7.53;;;12.90;71.70;;;;;;4992278;28;20061;-84
2022/05/06 00:18:54;;;;;;;15.05;8.55;;;13.00;71.90;;;;;;4978083;28;20088;-83
2022/05/06 00:21:21;;;;;;;15.18;8.65;;;12.90;72.30;;;;;;4992808;28;20052;-83
2022/05/06 00:23:48;;;;;;;13.65;7.38;;;12.80;72.50;;;;;;4978891;28;20431;-83
2022/05/06 00:26:16;;;;;;;12.38;7.00;;;12.80;72.50;;;;;;4998352;28;20042;-83
2022/05/06 00:28:43;;;;;;;13.88;7.70;;;12.80;72.60;;;;;;4982056;28;20050;-83
2022/05/06 00:31:12;;;;;;;12.20;6.10;;;12.70;72.60;;;;;;4997819;28;20053;-83
2022/05/06 00:33:40;;;;;;;11.93;6.70;;;12.70;72.70;;;;;;4997092;28;20073;-83
2022/05/06 00:36:07;;;;;;;11.85;6.40;;;12.70;72.80;;;;;;4981542;28;20406;-83
2022/05/06 00:38:34;;;;;;;14.63;7.35;;;12.70;72.90;;;;;;4983549;28;20048;-83
2022/05/06 00:41:02;;;;;;;10.88;6.13;;;12.70;73.00;;;;;;4982420;28;20092;-83
2022/05/06 00:43:29;;;;;;;9.85;5.55;;;12.60;73.10;;;;;;4998307;28;20048;-83
2022/05/06 00:45:57;;;;;;;11.35;6.28;;;12.60;73.20;;;;;;5012818;28;20042;-83
2022/05/06 00:48:30;;;;;;;9.77;5.38;;;12.60;73.40;;;;;;4998136;28;20064;-83
2022/05/06 00:51:01;;;;;;;11.25;6.15;;;12.50;73.40;;;;;;5014484;28;20065;-83
2022/05/06 00:53:29;;;;;;;11.60;6.40;;;12.50;73.60;;;;;;5013968;28;20438;-82
2022/05/06 00:55:56;;;;;;;12.68;5.70;;;12.50;73.70;;;;;;4997657;28;20561;-82
2022/05/06 00:58:25;;;;;;;10.25;5.20;;;12.40;73.80;;;;;;4997761;28;20788;-83
2022/05/06 01:00:52;;;;;;;10.90;6.32;;;12.40;73.80;;;;;;4981373;28;20069;-82
2022/05/06 01:03:19;;;;;;;10.43;4.85;;;12.40;73.90;;;;;;4997549;28;20045;-83
2022/05/06 01:05:47;;;;;;;9.98;5.13;;;12.40;74.00;;;;;;4993680;28;20069;-82
2022/05/06 01:08:14;;;;;;;9.18;5.07;;;12.30;74.00;;;;;;4981946;28;20054;-83
2022/05/06 01:10:42;;;;;;;12.05;7.03;;;12.20;74.00;;;;;;4981939;28;20052;-83
2022/05/06 01:13:10;;;;;;;11.63;6.10;;;12.20;74.40;;;;;;4996049;28;20196;-83
2022/05/06 01:15:38;;;;;;;15.35;7.55;;;12.10;74.70;;;;;;4993812;28;20871;-83
2022/05/06 01:18:13;;;;;;;11.98;6.32;;;12.10;74.70;;;;;;4996393;28;20130;-83
2022/05/06 01:20:52;;;;;;;11.10;6.07;;;12.10;74.80;;;;;;4997124;28;20050;-82
2022/05/06 01:23:22;;;;;;;9.98;5.15;;;12.10;74.90;;;;;;5012612;28;20064;-83
2022/05/06 01:25:49;;;;;;;10.75;6.10;;;12.10;75.00;;;;;;4979100;28;20049;-83
2022/05/06 01:28:19;;;;;;;10.85;5.82;;;12.10;75.00;;;;;;4997972;28;20113;-86
2022/05/06 01:30:48;;;;;;;10.60;5.82;;;12.10;75.20;;;;;;4982440;28;20414;-86
2022/05/06 01:33:17;;;;;;;11.13;5.60;;;12.10;75.20;;;;;;4998526;28;20054;-85
2022/05/06 01:35:46;;;;;;;10.63;5.78;;;12.00;75.30;;;;;;4973376;28;20053;-86
2022/05/06 01:38:42;;;;;;;13.65;7.47;;;12.00;75.50;;;;;;4998268;28;20137;-85
2022/05/06 01:41:17;;;;;;;12.90;6.97;;;12.00;75.80;;;;;;4987620;28;20248;-85
2022/05/06 01:43:56;;;;;;;12.90;6.45;;;12.00;75.90;;;;;;5031217;28;20038;-85
2022/05/06 01:46:27;;;;;;;13.20;6.43;;;11.90;76.00;;;;;;5014210;28;20049;-86
2022/05/06 01:49:02;;;;;;;13.90;7.55;;;11.90;76.20;;;;;;4999105;28;20053;-86
2022/05/06 01:51:32;;;;;;;15.00;7.18;;;11.90;76.30;;;;;;4998226;28;20074;-86
2022/05/06 01:54:02;;;;;;;14.68;8.00;;;11.80;76.40;;;;;;4998424;28;20049;-85
2022/05/06 01:56:31;;;;;;;16.65;8.75;;;11.80;76.60;;;;;;4994860;28;20054;-86
2022/05/06 01:58:58;;;;;;;16.27;8.98;;;11.80;76.90;;;;;;4981693;28;20073;-85
2022/05/06 02:01:26;;;;;;;22.25;10.88;;;11.80;77.20;;;;;;4993391;28;20058;-85
2022/05/06 02:06:39;;;;;;;19.35;10.35;;;11.80;77.40;;;;;;4974877;28;20060;-85
2022/05/06 02:09:20;;;;;;;19.17;10.05;;;11.80;77.40;;;;;;5000277;28;20116;-85
2022/05/06 02:11:53;;;;;;;15.75;7.90;;;11.90;77.50;;;;;;4994146;28;20053;-86
2022/05/06 02:14:27;;;;;;;17.83;8.57;;;11.90;77.70;;;;;;4992738;28;20049;-85
2022/05/06 02:17:30;;;;;;;21.10;10.38;;;11.90;77.70;;;;;;4991714;28;20053;-85
2022/05/06 02:20:26;;;;;;;18.55;10.57;;;11.90;78.00;;;;;;4956641;28;20047;-84
2022/05/06 02:23:02;;;;;;;22.98;11.52;;;11.80;78.20;;;;;;4968301;28;20042;-83
2022/05/06 02:25:39;;;;;;;17.50;9.10;;;11.80;78.50;;;;;;4974296;28;20043;-83
2022/05/06 02:28:10;;;;;;;16.92;8.57;;;11.80;78.60;;;;;;4977160;28;20053;-83
2022/05/06 02:33:28;;;;;;;16.88;8.90;;;11.70;78.70;;;;;;4997090;28;20398;-83
2022/05/06 02:36:14;;;;;;;18.63;9.77;;;11.70;78.80;;;;;;4999424;28;20506;-83
2022/05/06 02:38:41;;;;;;;16.77;9.55;;;11.60;79.20;;;;;;4977389;28;20204;-83
2022/05/06 02:41:10;;;;;;;17.30;8.52;;;11.60;79.40;;;;;;4989797;28;20049;-84
2022/05/06 02:43:49;;;;;;;13.80;7.47;;;11.60;79.50;;;;;;4987150;28;20058;-83
2022/05/06 02:46:18;;;;;;;16.15;8.65;;;11.50;79.40;;;;;;4996951;28;20049;-83
2022/05/06 02:48:46;;;;;;;12.82;7.28;;;11.60;79.60;;;;;;4996201;28;20569;-83
2022/05/06 02:51:16;;;;;;;14.45;7.68;;;11.50;79.60;;;;;;4977623;28;20161;-86
2022/05/06 02:53:46;;;;;;;12.73;7.05;;;11.50;79.60;;;;;;4993236;28;20502;-85
2022/05/06 02:56:25;;;;;;;12.65;6.63;;;11.50;79.70;;;;;;4974071;28;20472;-86
2022/05/06 02:58:57;;;;;;;14.38;7.70;;;11.50;79.80;;;;;;4997681;28;20038;-86
2022/05/06 03:01:28;;;;;;;13.60;7.78;;;11.40;79.80;;;;;;4974225;28;20050;-86
2022/05/06 03:04:02;;;;;;;12.77;6.68;;;11.30;80.10;;;;;;4996607;28;20042;-85
2022/05/06 03:06:29;;;;;;;13.82;8.00;;;11.20;80.20;;;;;;5029652;28;20054;-86
2022/05/06 03:08:57;;;;;;;13.50;7.65;;;11.20;80.30;;;;;;4981353;28;20049;-85
2022/05/06 03:11:30;;;;;;;14.20;7.70;;;11.10;80.40;;;;;;4981755;28;20384;-85
2022/05/06 03:14:05;;;;;;;10.80;6.63;;;11.00;80.40;;;;;;4997337;28;20060;-85
2022/05/06 03:16:40;;;;;;;9.55;5.53;;;11.00;80.50;;;;;;4997783;28;20058;-85
2022/05/06 03:19:10;;;;;;;9.75;5.38;;;10.90;80.50;;;;;;4980812;28;20052;-85
2022/05/06 03:21:37;;;;;;;7.95;4.55;;;10.90;80.50;;;;;;4988388;28;20046;-85
2022/05/06 03:24:04;;;;;;;9.13;5.82;;;10.80;80.60;;;;;;4994230;28;20050;-86
2022/05/06 03:26:32;;;;;;;8.32;4.75;;;10.80;80.60;;;;;;4978299;28;20156;-85
2022/05/06 03:28:59;;;;;;;9.55;5.78;;;10.80;80.60;;;;;;4966021;28;20039;-84
2022/05/06 03:31:26;;;;;;;9.45;5.15;;;10.70;80.70;;;;;;4985167;28;20046;-84
2022/05/06 03:34:12;;;;;;;9.02;5.05;;;10.60;80.80;;;;;;5017967;28;20164;-85
2022/05/06 03:36:42;;;;;;;8.95;5.38;;;10.60;81.00;;;;;;5011960;28;20077;-85
2022/05/06 03:39:12;;;;;;;9.57;5.80;;;10.60;81.10;;;;;;4992361;28;20042;-84
2022/05/06 03:41:59;;;;;;;7.97;5.10;;;10.50;81.20;;;;;;5002360;28;20073;-85
2022/05/06 03:44:28;;;;;;;9.05;5.10;;;10.50;81.20;;;;;;4979790;28;20046;-84
2022/05/06 03:46:55;;;;;;;8.25;5.10;;;10.50;81.20;;;;;;4978062;28;20410;-85
2022/05/06 03:49:30;;;;;;;8.50;4.97;;;10.50;81.20;;;;;;4978811;28;20129;-84
2022/05/06 03:52:00;;;;;;;9.00;5.35;;;10.40;81.10;;;;;;4995887;28;20046;-85
2022/05/06 03:54:28;;;;;;;8.02;4.20;;;10.40;81.20;;;;;;4995906;28;20042;-85
2022/05/06 03:56:55;;;;;;;7.18;4.70;;;10.30;81.10;;;;;;4979474;28;20045;-85
2022/05/06 03:59:24;;;;;;;8.40;4.68;;;10.30;81.80;;;;;;4995526;28;20045;-86
2022/05/06 04:02:00;;;;;;;6.78;3.95;;;10.30;81.20;;;;;;4994299;28;20136;-85
2022/05/06 04:04:30;;;;;;;6.93;4.50;;;10.30;81.20;;;;;;4980887;28;20042;-85
2022/05/06 04:07:01;;;;;;;6.93;4.07;;;10.30;81.10;;;;;;4980791;28;20069;-85
2022/05/06 04:09:31;;;;;;;6.80;3.72;;;10.30;81.10;;;;;;4999417;28;20069;-85
2022/05/06 04:11:59;;;;;;;8.02;4.05;;;10.30;81.10;;;;;;5005127;28;20088;-85
2022/05/06 04:14:27;;;;;;;5.97;3.28;;;10.30;81.20;;;;;;4979723;28;20077;-85
2022/05/06 04:16:57;;;;;;;8.07;4.75;;;10.30;81.30;;;;;;4979666;28;20050;-85
2022/05/06 04:19:30;;;;;;;7.38;4.55;;;10.20;81.30;;;;;;4995404;28;20042;-85
2022/05/06 04:24:54;;;;;;;8.55;5.00;;;10.10;81.60;;;;;;4998274;28;20136;-85
2022/05/06 04:27:24;;;;;;;7.40;4.43;;;10.10;81.80;;;;;;4994136;28;20050;-84
2022/05/06 04:29:56;;;;;;;6.80;3.87;;;10.00;81.70;;;;;;4996038;28;20410;-85
2022/05/06 04:32:30;;;;;;;6.30;3.88;;;10.10;81.70;;;;;;4996254;28;20052;-85
2022/05/06 04:34:58;;;;;;;6.72;3.92;;;10.10;81.60;;;;;;4994971;28;20049;-86
2022/05/06 04:37:26;;;;;;;5.60;3.17;;;10.10;81.60;;;;;;4995475;28;20053;-85
2022/05/06 04:39:57;;;;;;;6.18;3.50;;;10.10;81.50;;;;;;4980284;28;20597;-85
2022/05/06 04:42:25;;;;;;;5.95;3.20;;;10.10;81.40;;;;;;4995388;28;20117;-85
2022/05/06 04:44:53;;;;;;;5.63;3.42;;;10.10;81.50;;;;;;4995474;28;20062;-85
2022/05/06 04:47:20;;;;;;;7.97;4.50;;;10.10;81.50;;;;;;4976283;28;20609;-85
2022/05/06 04:49:48;;;;;;;6.50;4.18;;;10.10;81.60;;;;;;5007084;28;20138;-84
2022/05/06 04:52:15;;;;;;;6.65;3.67;;;10.10;81.60;;;;;;4995340;28;20042;-85
2022/05/06 04:54:42;;;;;;;5.93;3.45;;;10.10;81.70;;;;;;4979395;28;20409;-84
2022/05/06 04:57:10;;;;;;;6.05;3.50;;;10.10;81.70;;;;;;4979198;28;20042;-84
2022/05/06 04:59:37;;;;;;;6.45;3.92;;;10.10;81.60;;;;;;5012555;28;20042;-84
2022/05/06 05:02:06;;;;;;;5.88;3.53;;;10.10;81.60;;;;;;4997789;28;20073;-84
2022/05/06 05:04:34;;;;;;;5.03;3.15;;;10.20;81.60;;;;;;4981518;28;20533;-84
2022/05/06 05:07:10;;;;;;;5.97;2.95;;;10.10;81.50;;;;;;4998269;28;20132;-85
2022/05/06 05:09:44;;;;;;;5.63;3.40;;;10.20;81.60;;;;;;4997936;28;20077;-84
2022/05/06 05:12:14;;;;;;;6.38;3.80;;;10.20;81.60;;;;;;4979117;28;20054;-84
2022/05/06 05:14:45;;;;;;;7.97;4.50;;;10.20;81.50;;;;;;4990669;28;20212;-85
2022/05/06 05:17:17;;;;;;;7.10;4.15;;;10.20;81.60;;;;;;4983254;28;20200;-85
2022/05/06 05:19:50;;;;;;;8.15;5.43;;;10.20;81.60;;;;;;4999052;28;20045;-85
2022/05/06 05:22:18;;;;;;;11.45;6.95;;;10.10;82.00;;;;;;5014382;28;20050;-85
2022/05/06 05:24:47;;;;;;;7.43;4.70;;;10.10;82.20;;;;;;4998359;28;20049;-84
2022/05/06 05:27:16;;;;;;;7.65;4.57;;;10.10;82.10;;;;;;4998222;28;20502;-84
2022/05/06 05:29:45;;;;;;;6.65;4.07;;;10.20;82.10;;;;;;4982503;28;20050;-84
2022/05/06 05:32:13;;;;;;;8.32;5.00;;;10.30;81.90;;;;;;4994856;28;20046;-85
2022/05/06 05:34:44;;;;;;;6.47;3.90;;;10.30;81.80;;;;;;4982845;28;20085;-84
2022/05/06 05:37:14;;;;;;;8.18;5.07;;;10.40;81.70;;;;;;4983094;28;20128;-84
2022/05/06 05:39:41;;;;;;;7.68;4.65;;;10.50;81.70;;;;;;4969261;28;20050;-84
2022/05/06 05:42:11;;;;;;;7.20;4.80;;;10.50;81.60;;;;;;4997668;28;20042;-85
2022/05/06 05:50:13;;;;;;;5.63;3.10;;;10.70;81.50;;;;;;4999968;28;20137;-85
2022/05/06 05:52:43;;;;;;;5.78;2.88;;;10.80;81.50;;;;;;4979322;28;20046;-85
2022/05/06 05:55:11;;;;;;;5.90;3.25;;;10.80;81.50;;;;;;4997567;28;20074;-84
2022/05/06 05:57:38;;;;;;;6.13;3.33;;;10.90;81.40;;;;;;4981270;28;20042;-84
2022/05/06 06:00:08;;;;;;;6.88;3.25;;;11.10;81.30;;;;;;4979486;28;20093;-84
2022/05/06 06:02:42;;;;;;;4.63;2.65;;;11.20;81.10;;;;;;4997971;28;20042;-85
2022/05/06 06:05:12;;;;;;;7.75;4.13;;;11.30;81.00;;;;;;4982241;28;20038;-85
2022/05/06 06:07:43;;;;;;;7.13;3.90;;;11.30;80.90;;;;;;4982141;28;20042;-85
2022/05/06 06:10:12;;;;;;;6.60;3.22;;;11.30;81.00;;;;;;4981261;28;20077;-84
2022/05/06 06:12:40;;;;;;;5.97;3.35;;;11.40;81.10;;;;;;4993977;28;20044;-85
2022/05/06 06:15:09;;;;;;;6.03;3.33;;;11.50;81.60;;;;;;5007564;28;20101;-84
2022/05/06 06:17:36;;;;;;;6.30;3.65;;;11.50;80.80;;;;;;4996305;28;20482;-84
2022/05/06 06:20:05;;;;;;;10.35;6.10;;;11.60;80.70;;;;;;5012812;28;20054;-84
2022/05/06 06:22:38;;;;;;;9.40;5.32;;;11.70;80.80;;;;;;4994050;28;20406;-84
2022/05/06 06:25:07;;;;;;;12.20;7.68;;;11.70;80.70;;;;;;5012937;28;20133;-81
2022/05/06 06:27:37;;;;;;;10.60;6.43;;;11.70;80.70;;;;;;4977508;28;20105;-82
2022/05/06 06:30:08;;;;;;;11.10;7.22;;;11.80;80.70;;;;;;4995059;28;20426;-81
2022/05/06 06:32:36;;;;;;;10.38;6.85;;;11.80;80.80;;;;;;4996332;28;20045;-82
2022/05/06 06:35:07;;;;;;;11.48;7.95;;;11.90;81.00;;;;;;4981006;28;20540;-81
2022/05/06 06:37:49;;;;;;;14.70;9.32;;;11.90;81.10;;;;;;5011994;28;20256;-82
2022/05/06 06:40:21;;;;;;;12.63;7.70;;;12.00;81.20;;;;;;4980302;28;20054;-85
2022/05/06 06:42:50;;;;;;;10.68;7.15;;;12.00;81.20;;;;;;4997156;28;20042;-83
2022/05/06 06:45:37;;;;;;;9.88;6.57;;;12.00;81.10;;;;;;4996761;28;20486;-79
2022/05/06 06:48:33;;;;;;;10.88;6.72;;;12.10;81.10;;;;;;4985645;28;20057;-79
2022/05/06 06:51:19;;;;;;;10.90;6.55;;;12.20;81.00;;;;;;5012509;28;20053;-79
2022/05/06 06:53:53;;;;;;;9.20;5.68;;;12.30;80.90;;;;;;4981415;28;20149;-79
2022/05/06 06:56:22;;;;;;;8.60;5.50;;;12.30;80.70;;;;;;4992746;28;20109;-79
2022/05/06 06:58:49;;;;;;;9.88;6.75;;;12.50;80.60;;;;;;4991686;28;20074;-83
2022/05/06 07:01:16;;;;;;;10.60;6.75;;;12.50;80.70;;;;;;4987229;28;20049;-83
2022/05/06 07:03:44;;;;;;;8.63;5.25;;;12.60;80.60;;;;;;4995596;28;20050;-82
2022/05/06 07:11:58;;;;;;;10.88;7.03;;;12.80;80.50;;;;;;5000745;28;20108;-83
2022/05/06 07:14:35;;;;;;;11.65;7.32;;;12.90;80.60;;;;;;4985660;28;20050;-82
2022/05/06 07:17:05;;;;;;;12.85;7.88;;;12.90;80.60;;;;;;5008069;28;20104;-83
2022/05/06 07:19:35;;;;;;;11.50;6.97;;;13.00;80.70;;;;;;5013298;28;20042;-83
2022/05/06 07:22:02;;;;;;;13.77;8.65;;;13.10;80.70;;;;;;5011975;28;20049;-83
2022/05/06 07:24:34;;;;;;;13.77;8.85;;;13.20;80.60;;;;;;4997253;28;20104;-84
2022/05/06 07:27:01;;;;;;;14.90;8.93;;;13.40;80.60;;;;;;4976831;28;20458;-83
2022/05/06 07:29:28;;;;;;;14.85;8.88;;;13.50;80.40;;;;;;4983433;28;20054;-83
2022/05/06 07:31:55;;;;;;;19.17;12.52;;;13.60;80.20;;;;;;4994968;28;20085;-82
2022/05/06 07:34:22;;;;;;;17.38;10.07;;;13.70;80.40;;;;;;5011163;28;20069;-81
2022/05/06 07:36:49;;;;;;;13.43;8.90;;;13.80;80.30;;;;;;4994976;28;20053;-82
2022/05/06 07:39:16;;;;;;;15.25;10.45;;;13.90;80.10;;;;;;4992709;28;20043;-84
2022/05/06 07:41:43;;;;;;;18.67;11.85;;;14.00;79.90;;;;;;5007956;28;20085;-84
2022/05/06 07:44:11;;;;;;;20.17;12.43;;;14.10;79.80;;;;;;4995361;28;20058;-82
2022/05/06 07:46:38;;;;;;;19.30;12.18;;;14.20;79.80;;;;;;5044212;28;20072;-82
2022/05/06 07:49:06;;;;;;;19.80;11.32;;;14.30;79.70;;;;;;5011555;28;20041;-83
2022/05/06 07:51:33;;;;;;;18.85;10.45;;;14.40;79.60;;;;;;4979270;28;20058;-82
2022/05/06 07:54:02;;;;;;;16.13;10.02;;;14.50;79.20;;;;;;4994945;28;20513;-83
2022/05/06 07:56:29;;;;;;;18.48;11.25;;;14.70;79.10;;;;;;4991327;28;20046;-83
2022/05/06 07:58:56;;;;;;;17.60;11.02;;;14.70;79.00;;;;;;4994698;28;20490;-83
2022/05/06 08:06:56;;;;;;;17.52;10.52;;;14.80;78.70;;;;;;5011377;28;20042;-85
2022/05/06 08:09:23;;;;;;;16.95;10.75;;;14.90;78.70;;;;;;4995701;28;20133;-84
2022/05/06 08:11:50;;;;;;;15.00;9.70;;;14.90;78.60;;;;;;4995160;28;20092;-84
2022/05/06 08:14:18;;;;;;;15.93;10.13;;;14.90;78.60;;;;;;5011200;28;20054;-84
2022/05/06 08:16:49;;;;;;;14.43;9.23;;;14.90;78.50;;;;;;5009763;28;20045;-84
2022/05/06 08:19:17;;;;;;;14.82;9.10;;;15.00;78.40;;;;;;4964732;28;20502;-83
2022/05/06 08:21:50;;;;;;;11.98;7.85;;;15.10;78.20;;;;;;4995288;28;20042;-83
2022/05/06 08:24:21;;;;;;;13.30;8.05;;;15.20;78.10;;;;;;4993753;28;20080;-83
2022/05/06 08:26:49;;;;;;;11.90;7.90;;;15.30;77.90;;;;;;5010222;28;20057;-82
2022/05/06 08:29:16;;;;;;;11.73;7.53;;;15.40;77.80;;;;;;4995330;28;20050;-83
2022/05/06 08:31:43;;;;;;;12.50;8.27;;;15.40;77.70;;;;;;4996179;28;20120;-83
2022/05/06 08:34:12;;;;;;;14.10;8.80;;;15.40;77.40;;;;;;4999271;28;20077;-83
2022/05/06 08:36:41;;;;;;;14.45;8.63;;;15.50;77.40;;;;;;5016690;28;20045;-81
2022/05/06 08:39:08;;;;;;;13.27;8.98;;;15.60;77.20;;;;;;4998530;28;20058;-81
2022/05/06 08:41:36;;;;;;;9.70;6.85;;;15.60;77.10;;;;;;4998346;28;20040;-80
2022/05/06 08:52:39;;;;;;;13.48;8.30;;;15.90;76.90;;;;;;5025990;28;20412;-80
2022/05/06 08:55:07;;;;;;;11.07;7.05;;;16.00;76.60;;;;;;4978292;28;20074;-80
2022/05/06 08:57:35;;;;;;;12.90;7.15;;;16.10;76.50;;;;;;4984756;28;20073;-78
2022/05/06 09:00:06;;;;;;;10.77;6.50;;;16.20;76.30;;;;;;5006771;28;20053;-77
2022/05/06 09:02:33;;;;;;;10.45;5.60;;;16.40;76.20;;;;;;4997058;28;20046;-77
2022/05/06 09:05:00;;;;;;;8.57;5.78;;;16.50;76.10;;;;;;5007698;28;20556;-78
2022/05/06 09:07:27;;;;;;;9.48;5.55;;;16.60;75.70;;;;;;4995538;28;20026;-78
2022/05/06 09:10:14;;;;;;;8.88;5.22;;;16.70;75.40;;;;;;5014196;28;20053;-84
2022/05/06 09:12:44;;;;;;;10.27;6.50;;;16.80;75.20;;;;;;4997942;28;20085;-81
2022/05/06 09:18:07;;;;;;;11.98;7.45;;;16.80;74.90;;;;;;5013970;28;20053;-84
2022/05/06 09:20:40;;;;;;;10.52;6.45;;;16.90;74.70;;;;;;4990199;28;20053;-83
2022/05/06 09:23:20;;;;;;;11.07;7.38;;;16.90;74.60;;;;;;4998286;28;20042;-83
2022/05/06 09:25:51;;;;;;;9.15;6.40;;;17.00;74.40;;;;;;5013933;28;20050;-83
2022/05/06 09:28:23;;;;;;;8.38;5.85;;;17.00;74.30;;;;;;4998526;28;20486;-84
2022/05/06 09:31:09;;;;;;;8.77;5.78;;;17.10;74.10;;;;;;5030653;28;20042;-84
2022/05/06 09:33:43;;;;;;;8.55;5.60;;;17.20;74.00;;;;;;5016245;28;20058;-84
2022/05/06 09:36:29;;;;;;;9.82;6.45;;;17.20;73.90;;;;;;5017103;28;20050;-83
2022/05/06 09:39:06;;;;;;;11.38;6.97;;;17.20;73.70;;;;;;4983954;28;20053;-84
2022/05/06 09:41:39;;;;;;;10.52;7.38;;;17.30;73.60;;;;;;5015668;28;20041;-84
2022/05/06 09:44:08;;;;;;;8.10;5.65;;;17.40;73.40;;;;;;4994321;28;20064;-83
2022/05/06 09:46:36;;;;;;;10.07;6.07;;;17.40;73.40;;;;;;5015765;28;20093;-83
2022/05/06 09:49:04;;;;;;;10.60;6.28;;;17.60;73.10;;;;;;4983660;28;20046;-84
2022/05/06 09:51:51;;;;;;;8.63;5.90;;;17.60;72.80;;;;;;5014848;28;20061;-83
2022/05/06 09:54:31;;;;;;;8.32;5.82;;;17.70;72.50;;;;;;4980926;28;20050;-83
2022/05/06 09:57:02;;;;;;;7.97;5.20;;;17.80;72.30;;;;;;5004004;28;20067;-84
2022/05/06 09:59:29;;;;;;;8.40;5.50;;;17.80;72.20;;;;;;5001121;28;20045;-83
2022/05/06 10:01:56;;;;;;;6.43;4.72;;;17.90;72.00;;;;;;5032669;28;20037;-85
2022/05/06 10:04:24;;;;;;;9.15;6.35;;;18.00;71.80;;;;;;4983485;28;20069;-85
2022/05/06 10:06:53;;;;;;;7.82;5.30;;;18.00;71.50;;;;;;4992110;28;20045;-83
2022/05/06 10:09:24;;;;;;;7.50;5.47;;;18.00;71.50;;;;;;5015678;28;20391;-82
2022/05/06 10:11:54;;;;;;;8.45;5.63;;;18.10;71.20;;;;;;5000179;28;20049;-83
2022/05/06 10:14:22;;;;;;;6.20;4.57;;;18.20;70.70;;;;;;4993087;28;20406;-84
2022/05/06 10:16:49;;;;;;;7.20;4.95;;;18.30;70.60;;;;;;4991168;28;20555;-83
2022/05/06 10:19:27;;;;;;;5.90;4.45;;;18.30;70.40;;;;;;5025271;28;20050;-83
2022/05/06 10:21:56;;;;;;;6.70;4.13;;;18.50;70.20;;;;;;4982633;28;20112;-82
2022/05/06 10:24:23;;;;;;;6.72;4.47;;;18.60;69.90;;;;;;4979228;28;20053;-83
2022/05/06 10:26:51;;;;;;;6.22;4.15;;;18.70;69.60;;;;;;4992913;28;20038;-84
2022/05/06 10:32:52;;;;;;;5.90;4.05;;;18.90;68.80;;;;;;5013123;28;20111;-83
2022/05/06 10:35:36;;;;;;;4.82;3.30;;;19.00;68.90;;;;;;4996995;28;20065;-83
2022/05/06 10:38:24;;;;;;;4.65;3.05;;;19.10;68.30;;;;;;5015678;28;20059;-83
2022/05/06 10:41:02;;;;;;;5.10;3.10;;;19.10;68.30;;;;;;5000671;28;20038;-83
2022/05/06 10:43:42;;;;;;;5.80;3.60;;;19.30;68.00;;;;;;5015630;28;20045;-83
2022/05/06 10:46:32;;;;;;;;;;;19.50;67.00;;;;;;5000072;28;20045;-83
2022/05/06 10:49:30;;;;;;;5.32;3.13;;;19.90;66.40;;;;;;5015152;28;19927;-84
2022/05/06 10:52:16;;;;;;;5.90;2.60;;;20.20;65.20;;;;;;4999027;28;20047;-83
2022/05/06 10:54:47;;;;;;;3.85;2.65;;;20.10;65.00;;;;;;5012418;28;20129;-84
2022/05/06 10:57:17;;;;;;;3.58;2.30;;;20.00;65.00;;;;;;5016054;28;20084;-85
2022/05/06 10:59:51;;;;;;;3.83;2.80;;;20.10;64.90;;;;;;4983772;28;20494;-84
2022/05/06 11:02:27;;;;;;;5.60;3.00;;;20.50;63.70;;;;;;5015472;28;20095;-86
2022/05/06 11:04:59;;;;;;;4.50;2.88;;;20.80;62.70;;;;;;4999515;28;20124;-84
2022/05/06 11:07:31;;;;;;;;;;;21.10;61.80;;;;;;5012700;28;20030;-82
2022/05/06 11:09:59;;;;;;;3.78;2.28;;;21.40;61.40;;;;;;5031763;28;19925;-82
2022/05/06 11:12:37;;;;;;;2.80;1.55;;;21.80;60.50;;;;;;4980760;28;20051;-83
2022/05/06 11:15:10;;;;;;;3.72;2.17;;;22.00;60.00;;;;;;4995876;28;20053;-85
2022/05/06 11:17:37;;;;;;;4.30;1.95;;;22.10;59.00;;;;;;5040861;28;20045;-84
2022/05/06 11:20:22;;;;;;;3.42;2.00;;;22.20;58.80;;;;;;5014203;28;20045;-83
2022/05/06 11:22:58;;;;;;;4.78;1.58;;;22.30;58.50;;;;;;4995997;28;20045;-83
2022/05/06 11:25:27;;;;;;;2.85;1.77;;;22.50;58.00;;;;;;5008171;28;20042;-82
2022/05/06 11:27:56;;;;;;;2.67;1.52;;;22.60;57.60;;;;;;4995191;28;20049;-83
2022/05/06 11:30:24;;;;;;;2.50;1.60;;;22.70;57.40;;;;;;4985403;28;20077;-83
2022/05/06 11:33:01;;;;;;;2.60;1.40;;;22.80;57.00;;;;;;5007555;28;20041;-82
2022/05/06 11:35:42;;;;;;;1.98;1.38;;;22.90;56.90;;;;;;5001363;28;20061;-83
2022/05/06 11:38:09;;;;;;;3.10;1.92;;;23.10;56.50;;;;;;5032933;28;20042;-84
2022/05/06 11:40:37;;;;;;;2.97;1.77;;;23.30;56.20;;;;;;5032128;28;20026;-83
2022/05/06 11:43:23;;;;;;;3.90;2.15;;;23.30;55.50;;;;;;5013799;28;20107;-82
2022/05/06 11:48:44;;;;;;;2.88;2.30;;;23.50;55.20;;;;;;5012386;28;20390;-82
2022/05/06 11:51:37;;;;;;;2.78;1.88;;;23.60;53.80;;;;;;4997448;28;20045;-82
2022/05/06 11:54:06;;;;;;;;;;;23.50;53.70;;;;;;5009148;28;20041;-82
2022/05/06 11:56:38;;;;;;;2.08;1.20;;;23.40;53.90;;;;;;5032334;28;19920;-82
2022/05/06 11:59:06;;;;;;;4.47;1.98;;;23.70;53.80;;;;;;4996197;28;20140;-82
2022/05/06 12:01:37;;;;;;;2.97;1.85;;;23.70;53.00;;;;;;4999002;28;20113;-82
2022/05/06 12:04:06;;;;;;;2.17;1.10;;;23.90;53.10;;;;;;5014097;28;20045;-82
2022/05/06 12:06:49;;;;;;;2.55;1.50;;;24.20;53.10;;;;;;5014744;28;20048;-81
2022/05/06 12:09:18;;;;;;;2.65;1.27;;;24.50;52.40;;;;;;5003591;28;20140;-82
2022/05/06 12:11:46;;;;;;;2.05;1.05;;;24.70;52.50;;;;;;5017804;28;20041;-82
2022/05/06 12:14:17;;;;;;;1.35;0.80;;;24.90;52.10;;;;;;5032239;28;20045;-82
2022/05/06 12:16:55;;;;;;;;;;;25.20;52.00;;;;;;5034019;28;20049;-82
2022/05/06 12:19:35;;;;;;;2.05;1.10;;;25.40;52.00;;;;;;5030957;28;19921;-83
2022/05/06 12:22:13;;;;;;;3.17;1.30;;;25.60;51.30;;;;;;5001148;28;20057;-82
2022/05/06 12:24:45;;;;;;;2.65;1.73;;;25.60;51.00;;;;;;5001496;28;20037;-83
2022/05/06 12:27:22;;;;;;;2.55;1.77;;;25.60;49.80;;;;;;5017860;28;20038;-82
2022/05/06 12:29:49;;;;;;;2.42;1.20;;;25.50;49.70;;;;;;5018230;28;20046;-82
2022/05/06 12:32:16;;;;;;;2.42;1.02;;;25.50;49.20;;;;;;5001775;28;20049;-82
2022/05/06 12:34:43;;;;;;;1.77;1.02;;;25.50;49.30;;;;;;5016776;28;20052;-82
2022/05/06 12:37:20;;;;;;;1.35;0.70;;;25.80;49.10;;;;;;5001756;28;20095;-82
2022/05/06 12:39:50;;;;;;;1.58;0.80;;;25.90;48.60;;;;;;5017155;28;20030;-82
2022/05/06 12:42:18;;;;;;;1.50;0.70;;;26.30;48.60;;;;;;4985269;28;20050;-82
2022/05/06 12:45:06;;;;;;;2.63;1.10;;;26.50;48.00;;;;;;5034900;28;20516;-83
2022/05/06 12:50:19;;;;;;;1.65;0.85;;;26.70;47.10;;;;;;5021025;28;20045;-91
2022/05/06 12:52:46;;;;;;;1.80;0.70;;;26.80;47.20;;;;;;5002611;28;20058;-88
2022/05/06 12:55:14;;;;;;;1.73;0.77;;;27.00;46.80;;;;;;5002365;28;20042;-85
2022/05/06 12:57:41;;;;;;;2.00;0.70;;;27.20;46.40;;;;;;4997565;28;20049;-89
2022/05/06 13:00:11;;;;;;;1.63;0.80;;;27.40;46.20;;;;;;4979502;28;20050;-81
2022/05/06 13:02:38;;;;;;;1.98;0.70;;;27.60;46.00;;;;;;5001593;28;20037;-81
2022/05/06 13:05:06;;;;;;;2.13;1.10;;;27.60;45.10;;;;;;5002107;28;20049;-82
2022/05/06 13:07:33;;;;;;;1.55;0.68;;;27.50;44.60;;;;;;5000960;28;20160;-84
2022/05/06 13:10:01;;;;;;;2.42;1.02;;;27.60;44.40;;;;;;4994425;28;20052;-83
2022/05/06 13:12:28;;;;;;;1.05;0.57;;;27.50;44.00;;;;;;5000972;28;20424;-84
2022/05/06 13:14:55;;;;;;;3.15;1.00;;;27.70;44.20;;;;;;5001441;28;20189;-84
2022/05/06 13:17:22;;;;;;;1.58;0.60;;;27.80;43.50;;;;;;5001401;28;20468;-86
2022/05/06 13:19:51;;;;;;;1.75;0.70;;;28.20;43.70;;;;;;4985621;28;20060;-84
2022/05/06 13:22:21;;;;;;;2.35;0.68;;;28.50;43.50;;;;;;4998390;28;20045;-84
2022/05/06 13:24:50;;;;;;;2.20;1.20;;;28.80;43.00;;;;;;4989065;28;20073;-83
2022/05/06 13:27:20;;;;;;;1.42;0.60;;;28.90;43.40;;;;;;5001053;28;20051;-83
2022/05/06 13:29:47;;;;;;;2.22;1.13;;;29.00;43.00;;;;;;5015761;28;20033;-83
2022/05/06 13:32:17;;;;;;;1.65;0.80;;;29.20;42.50;;;;;;5009443;28;20049;-84
2022/05/06 13:34:46;;;;;;;2.45;1.08;;;29.40;42.40;;;;;;4997911;28;20069;-83
2022/05/06 13:37:13;;;;;;;1.35;0.90;;;29.50;42.00;;;;;;5013259;28;20050;-88
2022/05/06 13:39:40;;;;;;;2.03;0.70;;;29.50;41.70;;;;;;4997264;28;20056;-82
2022/05/06 13:42:07;;;;;;;2.50;0.63;;;29.50;41.70;;;;;;4977052;28;20096;-82
2022/05/06 13:44:35;;;;;;;1.73;1.00;;;29.60;41.40;;;;;;4990868;28;20061;-86
2022/05/06 13:47:16;;;;;;;2.63;1.30;;;29.70;40.90;;;;;;4997274;28;20057;-87
2022/05/06 13:49:44;;;;;;;3.17;1.27;;;29.60;40.50;;;;;;4995324;28;20034;-88